createdAt,value
2022-07-26T00:03:36.973Z,95741.00
2022-07-26T00:09:07.094Z,95731.00
2022-07-26T00:14:41.355Z,95723.00
2022-07-26T00:20:14.243Z,95718.00
2022-07-26T00:25:43.585Z,95689.00
2022-07-26T00:31:15.324Z,95691.00
2022-07-26T00:36:44.883Z,95702.00
2022-07-26T00:42:16.455Z,95686.00
2022-07-26T00:47:49.355Z,95651.00
2022-07-26T00:53:23.007Z,95621.00
2022-07-26T00:58:54.157Z,95614.00
2022-07-26T01:04:27.872Z,95622.00
2022-07-26T01:10:05.392Z,95619.00
2022-07-26T01:15:38.858Z,95627.00
2022-07-26T01:21:14.543Z,95618.00
2022-07-26T01:26:46.856Z,95622.00
2022-07-26T01:32:18.025Z,95622.00
2022-07-26T01:37:50.106Z,95623.00
2022-07-26T01:43:21.170Z,95621.00
2022-07-26T01:48:52.904Z,95614.00
2022-07-26T01:54:24.607Z,95616.00
2022-07-26T01:59:56.506Z,95620.00
2022-07-26T02:05:29.307Z,95614.00
2022-07-26T02:11:03.415Z,95606.00
2022-07-26T02:16:36.245Z,95607.00
2022-07-26T02:22:05.871Z,95603.00
2022-07-26T02:27:36.837Z,95607.00
2022-07-26T02:33:08.197Z,95626.00
2022-07-26T02:38:41.303Z,95633.00
2022-07-26T02:44:12.980Z,95628.00
2022-07-26T02:50:00.856Z,95634.00
2022-07-26T02:55:37.991Z,95625.00
2022-07-26T03:01:09.731Z,95634.00
2022-07-26T03:06:40.683Z,95624.00
2022-07-26T03:12:20.448Z,95623.00
2022-07-26T03:17:51.210Z,95617.00
2022-07-26T03:23:28.243Z,95607.00
2022-07-26T03:29:04.061Z,95631.00
2022-07-26T03:34:48.707Z,95626.00
2022-07-26T03:40:19.160Z,95617.00
2022-07-26T03:45:46.933Z,95626.00
2022-07-26T03:51:14.708Z,95623.00
2022-07-26T03:56:42.344Z,95615.00
2022-07-26T04:02:09.985Z,95617.00
2022-07-26T04:07:52.783Z,95608.00
2022-07-26T04:13:23.951Z,95616.00
2022-07-26T04:18:51.906Z,95624.00
2022-07-26T04:24:19.520Z,95627.00
2022-07-26T04:29:53.006Z,95631.00
2022-07-26T04:35:20.793Z,95626.00
2022-07-26T04:40:50.040Z,95638.00
2022-07-26T04:46:19.290Z,95634.00
2022-07-26T04:51:46.914Z,95635.00
2022-07-26T04:57:14.588Z,95638.00
2022-07-26T05:02:42.468Z,95649.00
2022-07-26T05:08:10.955Z,95640.00
2022-07-26T05:13:39.273Z,95659.00
2022-07-26T05:19:07.005Z,95648.00
2022-07-26T05:24:34.628Z,95648.00
2022-07-26T05:30:02.485Z,95655.00
2022-07-26T05:35:30.128Z,95646.00
2022-07-26T05:40:57.707Z,95656.00
2022-07-26T05:46:25.516Z,95655.00
2022-07-26T05:51:56.898Z,95659.00
2022-07-26T05:57:27.043Z,95657.00
2022-07-26T06:02:54.669Z,95660.00
2022-07-26T06:08:23.551Z,95663.00
2022-07-26T06:13:56.335Z,95668.00
2022-07-26T06:19:24.166Z,95669.00
2022-07-26T06:24:51.971Z,95670.00
2022-07-26T06:30:36.016Z,95663.00
2022-07-26T06:36:03.740Z,95660.00
2022-07-26T06:41:31.607Z,95670.00
2022-07-26T06:46:59.172Z,95672.00
2022-07-26T06:52:26.812Z,95685.00
2022-07-26T06:57:54.359Z,95680.00
2022-07-26T07:03:21.979Z,95688.00
2022-07-26T07:08:49.643Z,95679.00
2022-07-26T07:14:17.183Z,95682.00
2022-07-26T07:19:44.827Z,95684.00
2022-07-26T07:25:14.714Z,95685.00
2022-07-26T07:30:43.653Z,95689.00
2022-07-26T07:36:11.291Z,95687.00
2022-07-26T07:41:39.183Z,95694.00
2022-07-26T07:47:08.828Z,95697.00
2022-07-26T07:52:36.456Z,95692.00
2022-07-26T07:58:04.192Z,95708.00
2022-07-26T08:03:38.796Z,95707.00
2022-07-26T08:09:07.022Z,95706.00
2022-07-26T08:14:35.223Z,95701.00
2022-07-26T08:20:03.539Z,95710.00
2022-07-26T08:25:31.321Z,95709.00
2022-07-26T08:30:59.040Z,95721.00
2022-07-26T08:36:32.343Z,95730.00
2022-07-26T08:42:04.435Z,95733.00
2022-07-26T08:47:37.996Z,95735.00
2022-07-26T08:53:09.364Z,95729.00
2022-07-26T08:58:37.093Z,95736.00
2022-07-26T09:04:38.667Z,95729.00
2022-07-26T09:10:14.219Z,95730.00
2022-07-26T09:15:41.841Z,95736.00
2022-07-26T09:21:32.086Z,95746.00
2022-07-26T09:27:01.781Z,95751.00
2022-07-26T09:32:29.367Z,95743.00
2022-07-26T09:37:57.490Z,95734.00
2022-07-26T09:43:36.732Z,95734.00
2022-07-26T09:49:22.367Z,95733.00
2022-07-26T09:54:50.206Z,95737.00
2022-07-26T10:00:18.567Z,95736.00
2022-07-26T10:05:46.325Z,95733.00
2022-07-26T10:11:14.697Z,95739.00
2022-07-26T10:16:42.429Z,95722.00
2022-07-26T10:22:41.959Z,95732.00
2022-07-26T10:28:24.878Z,95733.00
2022-07-26T10:33:55.195Z,95715.00
2022-07-26T10:39:24.140Z,95718.00
2022-07-26T10:44:51.887Z,95721.00
2022-07-26T10:50:33.536Z,95716.00
2022-07-26T10:56:03.064Z,95718.00
2022-07-26T11:01:42.478Z,95709.00
2022-07-26T11:07:10.663Z,95715.00
2022-07-26T11:12:39.755Z,95719.00
2022-07-26T11:18:13.006Z,95715.00
2022-07-26T11:23:49.883Z,95707.00
2022-07-26T11:29:37.945Z,95703.00
2022-07-26T11:35:08.139Z,95703.00
2022-07-26T11:40:47.084Z,95694.00
2022-07-26T11:46:16.077Z,95697.00
2022-07-26T11:51:59.779Z,95693.00
2022-07-26T11:57:32.614Z,95681.00
2022-07-26T12:03:00.701Z,95688.00
2022-07-26T12:08:47.601Z,95692.00
2022-07-26T12:14:30.381Z,95696.00
2022-07-26T12:20:18.394Z,95691.00
2022-07-26T12:25:50.356Z,95685.00
2022-07-26T12:31:31.805Z,95680.00
2022-07-26T12:37:39.329Z,95688.00
2022-07-26T12:43:08.634Z,95680.00
2022-07-26T12:48:37.092Z,95681.00
2022-07-26T12:54:06.522Z,95684.00
2022-07-26T12:59:34.667Z,95683.00
2022-07-26T13:05:04.491Z,95676.00
2022-07-26T13:10:33.994Z,95682.00
2022-07-26T13:16:04.541Z,95672.00
2022-07-26T13:21:36.694Z,95670.00
2022-07-26T13:27:06.160Z,95671.00
2022-07-26T13:32:34.132Z,95658.00
2022-07-26T13:38:02.303Z,95662.00
2022-07-26T13:43:35.320Z,95661.00
2022-07-26T13:49:04.733Z,95665.00
2022-07-26T13:54:35.361Z,95658.00
2022-07-26T14:00:04.592Z,95650.00
2022-07-26T14:05:32.638Z,95646.00
2022-07-26T14:11:00.255Z,95657.00
2022-07-26T14:16:28.054Z,95660.00
2022-07-26T14:21:59.304Z,95675.00
2022-07-26T14:27:27.487Z,95673.00
2022-07-26T14:32:55.139Z,95670.00
2022-07-26T14:38:28.136Z,95672.00
2022-07-26T14:43:57.585Z,95672.00
2022-07-26T14:49:28.006Z,95667.00
2022-07-26T14:54:55.722Z,95664.00
2022-07-26T15:00:23.324Z,95652.00
2022-07-26T15:05:51.355Z,95649.00
2022-07-26T15:11:19.304Z,95642.00
2022-07-26T15:16:47.188Z,95634.00
2022-07-26T15:22:15.204Z,95640.00
2022-07-26T15:27:43.680Z,95622.00
2022-07-26T15:33:11.491Z,95630.00
2022-07-26T15:38:44.535Z,95617.00
2022-07-26T15:44:12.944Z,95615.00
2022-07-26T15:49:40.997Z,95616.00
2022-07-26T15:55:20.146Z,95619.00
2022-07-26T16:00:49.489Z,95619.00
2022-07-26T16:06:17.349Z,95621.00
2022-07-26T16:11:46.048Z,95614.00
2022-07-26T16:17:13.677Z,95614.00
2022-07-26T16:22:46.172Z,95605.00
2022-07-26T16:28:14.124Z,95604.00
2022-07-26T16:33:46.325Z,95601.00
2022-07-26T16:39:16.145Z,95602.00
2022-07-26T16:44:44.181Z,95604.00
2022-07-26T16:50:12.764Z,95609.00
2022-07-26T16:55:44.766Z,95608.00
2022-07-26T17:01:12.632Z,95608.00
2022-07-26T17:06:40.315Z,95617.00
2022-07-26T17:12:08.238Z,95612.00
2022-07-26T17:17:35.865Z,95612.00
2022-07-26T17:23:03.456Z,95613.00
2022-07-26T17:28:31.079Z,95618.00
2022-07-26T17:33:58.683Z,95625.00
2022-07-26T17:39:50.797Z,95624.00
2022-07-26T17:45:15.298Z,95625.00
2022-07-26T17:50:42.815Z,95623.00
2022-07-26T17:56:11.393Z,95636.00
2022-07-26T18:01:39.058Z,95635.00
2022-07-26T18:07:20.187Z,95633.00
2022-07-26T18:12:47.807Z,95633.00
2022-07-26T18:18:16.998Z,95622.00
2022-07-26T18:24:06.700Z,95626.00
2022-07-26T18:29:32.528Z,95631.00
2022-07-26T18:35:01.512Z,95633.00
2022-07-26T18:40:29.289Z,95627.00
2022-07-26T18:45:57.090Z,95639.00
2022-07-26T18:51:26.552Z,95634.00
2022-07-26T18:56:56.465Z,95632.00
2022-07-26T19:02:24.163Z,95634.00
2022-07-26T19:07:52.185Z,95640.00
2022-07-26T19:13:19.879Z,95644.00
2022-07-26T19:18:50.791Z,95655.00
2022-07-26T19:24:20.460Z,95654.00
2022-07-26T19:29:48.724Z,95665.00
2022-07-26T19:35:16.421Z,95665.00
2022-07-26T19:40:45.381Z,95669.00
2022-07-26T19:46:13.080Z,95679.00
2022-07-26T19:51:48.815Z,95681.00
2022-07-26T19:57:16.720Z,95675.00
2022-07-26T20:02:44.560Z,95683.00
2022-07-26T20:08:12.664Z,95668.00
2022-07-26T20:13:40.298Z,95671.00
2022-07-26T20:19:08.124Z,95666.00
2022-07-26T20:24:38.504Z,95662.00
2022-07-26T20:30:07.840Z,95664.00
2022-07-26T20:35:36.370Z,95664.00
2022-07-26T20:41:05.321Z,95664.00
2022-07-26T20:46:39.925Z,95658.00
2022-07-26T20:52:08.123Z,95662.00
2022-07-26T20:57:36.841Z,95674.00
2022-07-26T21:03:04.670Z,95665.00
2022-07-26T21:08:33.334Z,95667.00
2022-07-26T21:14:01.146Z,95662.00
2022-07-26T21:19:30.875Z,95673.00
2022-07-26T21:25:00.745Z,95680.00
2022-07-26T21:30:28.541Z,95674.00
2022-07-26T21:35:57.804Z,95670.00
2022-07-26T21:41:25.435Z,95670.00
2022-07-26T21:46:55.001Z,95665.00
2022-07-26T21:52:23.886Z,95675.00
2022-07-26T21:57:52.073Z,95671.00
2022-07-26T22:03:20.103Z,95669.00
2022-07-26T22:08:48.063Z,95670.00
2022-07-26T22:14:17.495Z,95677.00
2022-07-26T22:19:45.323Z,95664.00
2022-07-26T22:25:13.027Z,95662.00
2022-07-26T22:30:41.508Z,95670.00
2022-07-26T22:36:09.916Z,95667.00
2022-07-26T22:41:57.499Z,95660.00
2022-07-26T22:47:26.238Z,95659.00
2022-07-26T22:52:54.977Z,95651.00
2022-07-26T22:58:22.663Z,95653.00
2022-07-26T23:03:50.561Z,95653.00
2022-07-26T23:09:18.174Z,95652.00
2022-07-26T23:14:45.760Z,95649.00
2022-07-26T23:20:13.808Z,95653.00
2022-07-26T23:25:41.646Z,95660.00
2022-07-26T23:31:11.583Z,95654.00
2022-07-26T23:36:39.500Z,95661.00
2022-07-26T23:42:07.338Z,95656.00
2022-07-26T23:47:37.385Z,95649.00
2022-07-26T23:53:05.426Z,95637.00
2022-07-26T23:58:33.281Z,95640.00
